createdAt,value
2023-04-27T00:01:40.385Z,100092.47
2023-04-27T00:04:08.349Z,100088.22
2023-04-27T00:06:35.405Z,100082.81
2023-04-27T00:09:02.546Z,100079.41
2023-04-27T00:11:29.541Z,100080.66
2023-04-27T00:13:56.704Z,100083.59
2023-04-27T00:16:23.848Z,100080.69
2023-04-27T00:18:51.102Z,100088.84
2023-04-27T00:21:18.570Z,100078.22
2023-04-27T00:23:45.942Z,100078.47
2023-04-27T00:26:12.956Z,100086.31
2023-04-27T00:28:41.070Z,100081.84
2023-04-27T00:31:08.164Z,100078.53
2023-04-27T00:33:35.162Z,100070.56
2023-04-27T00:36:02.776Z,100073.25
2023-04-27T00:38:30.618Z,100060.34
2023-04-27T00:41:07.059Z,100071.78
2023-04-27T00:43:43.220Z,100076.25
2023-04-27T00:46:11.893Z,100083.97
2023-04-27T00:48:41.613Z,100075.16
2023-04-27T00:51:08.696Z,100062.94
2023-04-27T00:53:36.727Z,100076.06
2023-04-27T00:56:05.680Z,100085.59
2023-04-27T00:58:33.087Z,100086.50
2023-04-27T01:01:00.968Z,100084.13
2023-04-27T01:03:28.172Z,100083.13
2023-04-27T01:05:56.930Z,100083.22
2023-04-27T01:08:24.759Z,100059.78
2023-04-27T01:10:51.921Z,100084.13
2023-04-27T01:13:19.085Z,100084.16
2023-04-27T01:15:46.239Z,100095.50
2023-04-27T01:18:13.939Z,100086.75
2023-04-27T01:20:42.412Z,100088.44
2023-04-27T01:23:16.649Z,100093.91
2023-04-27T01:25:44.323Z,100100.78
2023-04-27T01:28:11.338Z,100098.94
2023-04-27T01:30:38.367Z,100099.03
2023-04-27T01:33:05.476Z,100076.41
2023-04-27T01:35:32.494Z,100086.88
2023-04-27T01:38:00.693Z,100086.00
2023-04-27T01:40:27.779Z,100074.78
2023-04-27T01:42:54.822Z,100086.94
2023-04-27T01:45:22.051Z,100073.81
2023-04-27T01:47:52.272Z,100077.53
2023-04-27T01:50:21.240Z,100068.81
2023-04-27T01:52:48.509Z,100076.69
2023-04-27T01:55:15.579Z,100061.81
2023-04-27T01:57:43.240Z,100084.59
2023-04-27T02:00:10.982Z,100070.59
2023-04-27T02:02:53.817Z,100073.25
2023-04-27T02:05:23.674Z,100090.81
2023-04-27T02:07:51.164Z,100072.41
2023-04-27T02:10:18.232Z,100064.59
2023-04-27T02:12:45.389Z,100075.91
2023-04-27T02:15:12.392Z,100089.03
2023-04-27T02:17:39.757Z,100102.19
2023-04-27T02:20:07.660Z,100105.69
2023-04-27T02:22:34.661Z,100094.34
2023-04-27T02:25:02.417Z,100110.03
2023-04-27T02:27:29.450Z,100102.19
2023-04-27T02:29:58.249Z,100124.97
2023-04-27T02:32:25.845Z,100126.66
2023-04-27T02:34:52.952Z,100125.69
2023-04-27T02:37:19.981Z,100137.06
2023-04-27T02:39:47.424Z,100129.31
2023-04-27T02:42:14.836Z,100134.47
2023-04-27T02:44:43.076Z,100127.47
2023-04-27T02:47:10.854Z,100111.81
2023-04-27T02:49:38.243Z,100101.34
2023-04-27T02:52:05.564Z,100105.69
2023-04-27T02:54:33.033Z,100111.75
2023-04-27T02:57:00.217Z,100127.56
2023-04-27T02:59:27.397Z,100131.84
2023-04-27T03:01:54.638Z,100140.59
2023-04-27T03:04:21.772Z,100140.59
2023-04-27T03:06:49.177Z,100151.03
2023-04-27T03:09:16.555Z,100163.31
2023-04-27T03:11:44.041Z,100152.72
2023-04-27T03:14:12.818Z,100162.41
2023-04-27T03:16:40.564Z,100150.84
2023-04-27T03:19:07.676Z,100167.47
2023-04-27T03:21:34.716Z,100155.25
2023-04-27T03:24:01.742Z,100156.09
2023-04-27T03:26:28.755Z,100136.97
2023-04-27T03:28:57.271Z,100143.97
2023-04-27T03:31:24.335Z,100151.78
2023-04-27T03:33:51.521Z,100147.50
2023-04-27T03:36:18.584Z,100142.31
2023-04-27T03:38:45.624Z,100144.03
2023-04-27T03:41:13.049Z,100143.13
2023-04-27T03:43:40.290Z,100138.81
2023-04-27T03:46:07.435Z,100142.25
2023-04-27T03:48:34.491Z,100142.25
2023-04-27T03:51:02.166Z,100098.56
2023-04-27T03:53:29.214Z,100112.56
2023-04-27T03:55:56.264Z,100127.47
2023-04-27T03:58:23.303Z,100157.31
2023-04-27T04:01:25.735Z,100147.56
2023-04-27T04:03:52.939Z,100144.16
2023-04-27T04:06:20.139Z,100159.94
2023-04-27T04:08:47.245Z,100160.75
2023-04-27T04:11:14.225Z,100152.94
2023-04-27T04:13:42.196Z,100175.63
2023-04-27T04:16:10.242Z,100161.66
2023-04-27T04:18:37.668Z,100151.16
2023-04-27T04:21:06.571Z,100170.41
2023-04-27T04:23:33.536Z,100159.91
2023-04-27T04:26:02.286Z,100169.47
2023-04-27T04:28:33.657Z,100166.81
2023-04-27T04:31:03.576Z,100158.09
2023-04-27T04:33:31.364Z,100145.78
2023-04-27T04:35:58.898Z,100182.50
2023-04-27T04:38:26.356Z,100165.00
2023-04-27T04:40:53.978Z,100156.25
2023-04-27T04:43:21.662Z,100173.78
2023-04-27T04:45:48.807Z,100190.38
2023-04-27T04:48:16.737Z,100200.81
2023-04-27T04:50:45.689Z,100192.09
2023-04-27T04:53:13.446Z,100215.69
2023-04-27T04:55:42.111Z,100221.78
2023-04-27T04:58:10.119Z,100218.31
2023-04-27T05:00:37.277Z,100216.59
2023-04-27T05:03:04.579Z,100234.94
2023-04-27T05:05:31.760Z,100231.44
2023-04-27T05:07:58.742Z,100227.91
2023-04-27T05:10:25.776Z,100233.97
2023-04-27T05:12:52.733Z,100227.00
2023-04-27T05:15:19.710Z,100242.75
2023-04-27T05:17:46.835Z,100256.59
2023-04-27T05:20:13.987Z,100247.88
2023-04-27T05:22:41.225Z,100248.84
2023-04-27T05:25:08.671Z,100254.00
2023-04-27T05:27:35.845Z,100261.03
2023-04-27T05:30:03.487Z,100274.19
2023-04-27T05:32:30.812Z,100270.66
2023-04-27T05:34:57.872Z,100287.09
2023-04-27T05:37:24.844Z,100296.75
2023-04-27T05:39:52.592Z,100300.25
2023-04-27T05:42:19.561Z,100307.97
2023-04-27T05:44:46.492Z,100302.47
2023-04-27T05:47:13.499Z,100308.53
2023-04-27T05:49:40.708Z,100316.16
2023-04-27T05:52:07.927Z,100322.94
2023-04-27T05:54:34.965Z,100335.97
2023-04-27T05:57:01.967Z,100333.53
2023-04-27T05:59:29.462Z,100347.56
2023-04-27T06:01:57.180Z,100339.84
2023-04-27T06:04:24.451Z,100335.91
2023-04-27T06:06:51.550Z,100349.03
2023-04-27T06:09:18.468Z,100355.09
2023-04-27T06:11:47.516Z,100363.69
2023-04-27T06:14:14.575Z,100355.53
2023-04-27T06:16:41.580Z,100357.50
2023-04-27T06:19:08.574Z,100378.19
2023-04-27T06:21:36.299Z,100375.72
2023-04-27T06:24:03.368Z,100372.97
2023-04-27T06:26:30.414Z,100380.28
2023-04-27T06:28:57.418Z,100386.59
2023-04-27T06:31:26.359Z,100391.47
2023-04-27T06:33:53.933Z,100392.22
2023-04-27T06:36:21.317Z,100383.31
2023-04-27T06:38:48.323Z,100391.16
2023-04-27T06:41:15.340Z,100394.25
2023-04-27T06:43:42.331Z,100405.28
2023-04-27T06:46:09.327Z,100407.75
2023-04-27T06:48:36.594Z,100405.44
2023-04-27T06:51:03.834Z,100409.41
2023-04-27T06:53:31.653Z,100402.16
2023-04-27T06:55:58.620Z,100406.72
2023-04-27T06:58:27.136Z,100413.03
2023-04-27T07:00:54.149Z,100423.19
2023-04-27T07:03:22.524Z,100414.19
2023-04-27T07:05:51.738Z,100399.81
2023-04-27T07:08:18.732Z,100408.16
2023-04-27T07:10:45.886Z,100399.78
2023-04-27T07:13:14.334Z,100402.50
2023-04-27T07:15:41.598Z,100386.38
2023-04-27T07:18:08.784Z,100383.22
2023-04-27T07:20:38.106Z,100401.13
2023-04-27T07:23:05.121Z,100398.50
2023-04-27T07:25:32.089Z,100385.63
2023-04-27T07:27:59.828Z,100382.66
2023-04-27T07:30:26.813Z,100369.16
2023-04-27T07:32:54.644Z,100371.81
2023-04-27T07:35:22.462Z,100359.81
2023-04-27T07:37:49.458Z,100351.75
2023-04-27T07:40:16.777Z,100348.16
2023-04-27T07:42:44.736Z,100351.13
2023-04-27T07:45:11.944Z,100336.03
2023-04-27T07:47:39.292Z,100348.66
2023-04-27T07:50:10.187Z,100344.44
2023-04-27T07:52:37.442Z,100330.06
2023-04-27T07:55:04.780Z,100319.78
2023-04-27T07:57:31.914Z,100336.34
2023-04-27T07:59:58.877Z,100326.34
2023-04-27T08:02:30.600Z,100326.22
2023-04-27T08:04:58.189Z,100310.63
2023-04-27T08:07:25.924Z,100325.44
2023-04-27T08:09:53.395Z,100320.75
2023-04-27T08:12:20.416Z,100313.72
2023-04-27T08:14:47.715Z,100315.50
2023-04-27T08:17:14.663Z,100304.56
2023-04-27T08:19:41.676Z,100295.63
2023-04-27T08:22:08.660Z,100315.16
2023-04-27T08:24:36.432Z,100319.41
2023-04-27T08:27:03.685Z,100320.94
2023-04-27T08:29:30.913Z,100320.19
2023-04-27T08:32:01.018Z,100324.72
2023-04-27T08:34:29.182Z,100324.78
2023-04-27T08:36:57.029Z,100330.56
2023-04-27T08:39:25.157Z,100321.81
2023-04-27T08:41:52.651Z,100336.25
2023-04-27T08:44:19.690Z,100331.34
2023-04-27T08:46:47.084Z,100333.78
2023-04-27T08:49:16.545Z,100342.16
2023-04-27T08:51:44.947Z,100327.72
2023-04-27T08:54:12.016Z,100341.00
2023-04-27T08:56:39.656Z,100343.00
2023-04-27T08:59:15.343Z,100372.06
2023-04-27T09:01:48.761Z,100355.97
2023-04-27T09:04:16.888Z,100376.34
2023-04-27T09:06:44.169Z,100386.72
2023-04-27T09:09:22.569Z,100374.09
2023-04-27T09:11:50.054Z,100394.09
2023-04-27T09:14:18.138Z,100405.81
2023-04-27T09:16:45.517Z,100398.84
2023-04-27T09:19:12.920Z,100410.00
2023-04-27T09:21:40.275Z,100413.56
2023-04-27T09:24:13.011Z,100424.28
2023-04-27T09:26:42.724Z,100431.50
2023-04-27T09:29:09.795Z,100411.31
2023-04-27T09:31:37.228Z,100428.50
2023-04-27T09:34:04.711Z,100429.47
2023-04-27T09:36:32.794Z,100415.13
2023-04-27T09:39:06.708Z,100425.44
2023-04-27T09:41:34.005Z,100425.91
2023-04-27T09:44:02.019Z,100412.13
2023-04-27T09:46:33.795Z,100437.53
2023-04-27T09:49:04.514Z,100426.97
2023-04-27T09:51:31.996Z,100432.56
2023-04-27T09:54:03.216Z,100435.59
2023-04-27T09:56:51.880Z,100436.66
2023-04-27T09:59:37.469Z,100426.75
2023-04-27T10:02:20.803Z,100429.47
2023-04-27T10:05:24.574Z,100440.66
2023-04-27T10:07:53.390Z,100436.47
2023-04-27T10:10:20.693Z,100429.41
2023-04-27T10:13:01.093Z,100439.47
2023-04-27T10:15:29.956Z,100439.06
2023-04-27T10:18:03.539Z,100423.00
2023-04-27T10:20:32.699Z,100447.28
2023-04-27T10:23:00.685Z,100428.88
2023-04-27T10:25:29.910Z,100441.88
2023-04-27T10:28:02.017Z,100423.66
2023-04-27T10:30:34.539Z,100420.41
2023-04-27T10:33:12.005Z,100439.38
2023-04-27T10:35:45.402Z,100443.91
2023-04-27T10:38:19.712Z,100427.16
2023-04-27T10:40:57.341Z,100431.16
2023-04-27T10:43:29.139Z,100426.91
2023-04-27T10:46:08.236Z,100422.72
2023-04-27T10:48:35.248Z,100426.56
2023-04-27T10:51:03.207Z,100411.00
2023-04-27T10:53:37.699Z,100426.81
2023-04-27T10:56:07.181Z,100426.66
2023-04-27T10:58:48.023Z,100428.75
2023-04-27T11:01:27.122Z,100428.31
2023-04-27T11:03:59.051Z,100415.13
2023-04-27T11:06:26.520Z,100426.50
2023-04-27T11:08:53.500Z,100422.03
2023-04-27T11:11:20.984Z,100412.88
2023-04-27T11:13:53.148Z,100410.97
2023-04-27T11:16:20.382Z,100415.00
2023-04-27T11:18:47.683Z,100418.38
2023-04-27T11:21:19.020Z,100422.28
2023-04-27T11:23:46.232Z,100415.94
2023-04-27T11:26:26.615Z,100405.22
2023-04-27T11:29:02.074Z,100414.75
2023-04-27T11:31:49.158Z,100414.78
2023-04-27T11:34:22.695Z,100413.53
2023-04-27T11:39:41.773Z,100404.69
2023-04-27T11:42:20.032Z,100405.72
2023-04-27T11:44:55.040Z,100410.28
2023-04-27T11:47:23.058Z,100413.41
2023-04-27T11:49:52.248Z,100415.66
2023-04-27T11:52:19.391Z,100420.03
2023-04-27T11:54:49.940Z,100425.13
2023-04-27T11:57:17.287Z,100429.03
2023-04-27T11:59:44.640Z,100428.84
2023-04-27T12:02:11.984Z,100437.00
2023-04-27T12:04:39.221Z,100432.56
2023-04-27T12:07:06.715Z,100441.13
2023-04-27T12:09:33.992Z,100422.34
2023-04-27T12:12:00.969Z,100430.34
2023-04-27T12:14:28.032Z,100431.09
2023-04-27T12:16:55.070Z,100423.72
2023-04-27T12:19:24.393Z,100424.78
2023-04-27T12:21:52.250Z,100431.50
2023-04-27T12:24:19.759Z,100417.81
2023-04-27T12:26:46.989Z,100432.63
2023-04-27T12:29:14.167Z,100440.94
2023-04-27T12:31:41.497Z,100432.16
2023-04-27T12:34:08.549Z,100440.06
2023-04-27T12:36:36.466Z,100429.66
2023-04-27T12:39:20.551Z,100425.34
2023-04-27T12:41:49.256Z,100444.44
2023-04-27T12:44:18.024Z,100442.53
2023-04-27T12:46:46.133Z,100429.94
2023-04-27T12:49:13.250Z,100447.41
2023-04-27T12:51:40.412Z,100457.75
2023-04-27T12:54:11.278Z,100457.44
2023-04-27T12:56:38.488Z,100456.94
2023-04-27T12:59:08.801Z,100446.88
2023-04-27T13:01:35.862Z,100459.56
2023-04-27T13:04:06.047Z,100455.44
2023-04-27T13:06:33.281Z,100455.00
2023-04-27T13:09:00.372Z,100459.72
2023-04-27T13:11:27.575Z,100450.50
2023-04-27T13:13:55.286Z,100458.91
2023-04-27T13:16:25.377Z,100465.22
2023-04-27T13:18:53.587Z,100457.63
2023-04-27T13:21:21.174Z,100463.66
2023-04-27T13:23:48.823Z,100462.25
2023-04-27T13:26:16.552Z,100466.22
2023-04-27T13:28:43.777Z,100469.16
2023-04-27T13:31:11.191Z,100471.78
2023-04-27T13:33:42.812Z,100469.16
2023-04-27T13:36:11.166Z,100458.19
2023-04-27T13:38:38.370Z,100467.16
2023-04-27T13:41:06.410Z,100469.31
2023-04-27T13:43:33.456Z,100478.03
2023-04-27T13:46:01.724Z,100475.91
2023-04-27T13:48:30.384Z,100474.13
2023-04-27T13:50:58.244Z,100480.47
2023-04-27T13:53:26.038Z,100466.78
2023-04-27T13:56:02.862Z,100478.91
2023-04-27T13:58:30.279Z,100483.69
2023-04-27T14:00:58.211Z,100470.53
2023-04-27T14:03:59.322Z,100470.91
2023-04-27T14:06:27.562Z,100459.31
2023-04-27T14:08:55.672Z,100461.97
2023-04-27T14:11:23.540Z,100471.84
2023-04-27T14:13:50.599Z,100463.22
2023-04-27T14:16:17.691Z,100464.47
2023-04-27T14:18:44.799Z,100476.38
2023-04-27T14:21:12.056Z,100479.31
2023-04-27T14:23:39.097Z,100475.00
2023-04-27T14:26:06.140Z,100469.97
2023-04-27T14:28:33.164Z,100476.91
2023-04-27T14:31:00.136Z,100471.41
2023-04-27T14:33:27.077Z,100470.88
2023-04-27T14:35:54.516Z,100471.56
2023-04-27T14:38:22.069Z,100479.31
2023-04-27T14:40:49.070Z,100485.34
2023-04-27T14:43:17.192Z,100489.84
2023-04-27T14:45:51.519Z,100501.38
2023-04-27T14:48:21.245Z,100499.75
2023-04-27T14:50:48.206Z,100489.91
2023-04-27T14:53:15.262Z,100489.34
2023-04-27T14:55:44.294Z,100501.28
2023-04-27T14:58:11.964Z,100498.03
2023-04-27T15:00:40.165Z,100505.75
2023-04-27T15:03:07.291Z,100502.69
2023-04-27T15:05:34.461Z,100493.34
2023-04-27T15:08:01.734Z,100503.84
2023-04-27T15:10:28.796Z,100501.13
2023-04-27T15:12:55.739Z,100494.63
2023-04-27T15:15:22.780Z,100500.84
2023-04-27T15:17:49.805Z,100515.09
2023-04-27T15:20:16.915Z,100504.63
2023-04-27T15:22:43.881Z,100512.41
2023-04-27T15:25:11.453Z,100513.72
2023-04-27T15:27:38.564Z,100517.41
2023-04-27T15:30:06.402Z,100520.13
2023-04-27T15:32:33.818Z,100519.38
2023-04-27T15:35:00.866Z,100528.09
2023-04-27T15:37:28.996Z,100528.25
2023-04-27T15:39:56.583Z,100536.13
2023-04-27T15:42:24.563Z,100534.69
2023-04-27T15:44:51.979Z,100543.03
2023-04-27T15:47:19.098Z,100543.22
2023-04-27T15:49:56.971Z,100548.78
2023-04-27T15:52:27.304Z,100552.47
2023-04-27T15:54:55.383Z,100548.25
2023-04-27T15:57:22.420Z,100553.53
2023-04-27T15:59:49.413Z,100546.88
2023-04-27T16:02:16.470Z,100560.84
2023-04-27T16:04:43.491Z,100558.75
2023-04-27T16:07:10.595Z,100557.75
2023-04-27T16:09:37.737Z,100555.19
2023-04-27T16:12:05.124Z,100558.31
2023-04-27T16:14:32.171Z,100561.94
2023-04-27T16:17:02.463Z,100559.38
2023-04-27T16:19:29.719Z,100566.09
2023-04-27T16:21:56.682Z,100561.53
2023-04-27T16:24:25.540Z,100572.09
2023-04-27T16:26:52.526Z,100579.28
2023-04-27T16:29:19.511Z,100579.78
2023-04-27T16:31:50.173Z,100582.66
2023-04-27T16:34:17.264Z,100590.31
2023-04-27T16:36:44.670Z,100588.13
2023-04-27T16:39:11.927Z,100590.81
2023-04-27T16:41:39.037Z,100588.72
2023-04-27T16:44:06.102Z,100600.66
2023-04-27T16:46:33.172Z,100594.72
2023-04-27T16:49:00.180Z,100604.84
2023-04-27T16:51:27.146Z,100609.97
2023-04-27T16:53:54.342Z,100606.72
2023-04-27T16:56:36.240Z,100605.97
2023-04-27T16:59:05.100Z,100607.31
2023-04-27T17:01:32.239Z,100612.13
2023-04-27T17:04:02.569Z,100608.78
2023-04-27T17:06:30.089Z,100615.69
2023-04-27T17:08:57.967Z,100612.94
2023-04-27T17:11:25.151Z,100617.69
2023-04-27T17:13:52.352Z,100612.41
2023-04-27T17:16:19.676Z,100620.34
2023-04-27T17:18:47.267Z,100613.56
2023-04-27T17:21:14.484Z,100626.84
2023-04-27T17:23:41.682Z,100632.13
2023-04-27T17:26:08.898Z,100636.63
2023-04-27T17:28:36.116Z,100634.03
2023-04-27T17:31:03.571Z,100636.53
2023-04-27T17:33:30.720Z,100646.34
2023-04-27T17:35:57.726Z,100656.97
2023-04-27T17:38:24.914Z,100649.84
2023-04-27T17:40:51.900Z,100660.44
2023-04-27T17:43:19.010Z,100660.59
2023-04-27T17:45:46.385Z,100663.00
2023-04-27T17:48:13.453Z,100670.03
2023-04-27T17:50:41.156Z,100670.91
2023-04-27T17:53:08.164Z,100672.81
2023-04-27T17:55:35.428Z,100680.94
2023-04-27T17:58:04.158Z,100687.00
2023-04-27T18:00:31.321Z,100679.81
2023-04-27T18:02:58.423Z,100689.75
2023-04-27T18:05:25.506Z,100691.56
2023-04-27T18:07:53.166Z,100690.56
2023-04-27T18:10:20.409Z,100697.69
2023-04-27T18:12:47.648Z,100701.22
2023-04-27T18:15:14.725Z,100702.16
2023-04-27T18:17:41.759Z,100702.41
2023-04-27T18:20:10.545Z,100700.50
2023-04-27T18:22:40.280Z,100701.38
2023-04-27T18:25:11.118Z,100710.19
2023-04-27T18:27:38.171Z,100706.75
2023-04-27T18:30:06.532Z,100713.69
2023-04-27T18:32:34.749Z,100707.69
2023-04-27T18:35:02.629Z,100713.59
2023-04-27T18:37:29.623Z,100713.69
2023-04-27T18:39:56.686Z,100719.16
2023-04-27T18:42:23.893Z,100717.38
2023-04-27T18:44:54.902Z,100717.47
2023-04-27T18:47:22.010Z,100721.09
2023-04-27T18:49:49.097Z,100722.81
2023-04-27T18:52:16.117Z,100717.44
2023-04-27T18:54:43.460Z,100729.88
2023-04-27T18:57:10.590Z,100729.75
2023-04-27T18:59:39.469Z,100738.59
2023-04-27T19:02:08.793Z,100739.44
2023-04-27T19:04:36.030Z,100738.63
2023-04-27T19:07:03.304Z,100742.16
2023-04-27T19:09:30.312Z,100745.69
2023-04-27T19:12:02.701Z,100751.75
2023-04-27T19:14:31.652Z,100756.09
2023-04-27T19:16:58.809Z,100756.22
2023-04-27T19:19:26.756Z,100754.31
2023-04-27T19:21:54.300Z,100764.06
2023-04-27T19:24:21.428Z,100763.28
2023-04-27T19:26:48.599Z,100764.94
2023-04-27T19:29:16.468Z,100765.03
2023-04-27T19:31:43.826Z,100762.47
2023-04-27T19:34:11.035Z,100759.84
2023-04-27T19:36:38.024Z,100776.50
2023-04-27T19:39:05.054Z,100765.03
2023-04-27T19:41:31.997Z,100758.81
2023-04-27T19:43:58.911Z,100770.94
2023-04-27T19:46:26.895Z,100760.44
2023-04-27T19:48:54.509Z,100764.81
2023-04-27T19:51:21.602Z,100771.88
2023-04-27T19:53:48.574Z,100764.06
2023-04-27T19:56:15.515Z,100776.22
2023-04-27T19:58:42.520Z,100775.47
2023-04-27T20:01:10.386Z,100782.41
2023-04-27T20:03:40.131Z,100788.50
2023-04-27T20:06:08.816Z,100794.91
2023-04-27T20:08:35.940Z,100791.88
2023-04-27T20:11:02.945Z,100794.41
2023-04-27T20:13:29.914Z,100793.50
2023-04-27T20:15:58.350Z,100796.19
2023-04-27T20:18:25.768Z,100791.22
2023-04-27T20:20:52.736Z,100786.81
2023-04-27T20:23:21.188Z,100796.56
2023-04-27T20:25:48.173Z,100793.97
2023-04-27T20:28:15.178Z,100794.69
2023-04-27T20:30:42.261Z,100791.19
2023-04-27T20:33:09.516Z,100796.38
2023-04-27T20:35:36.560Z,100804.25
2023-04-27T20:38:03.630Z,100803.38
2023-04-27T20:40:30.976Z,100813.94
2023-04-27T20:42:57.999Z,100807.44
2023-04-27T20:45:25.960Z,100812.72
2023-04-27T20:47:52.923Z,100819.56
2023-04-27T20:50:20.106Z,100827.41
2023-04-27T20:52:47.138Z,100824.81
2023-04-27T20:55:14.274Z,100826.78
2023-04-27T20:57:41.233Z,100830.91
2023-04-27T21:00:11.398Z,100827.47
2023-04-27T21:02:38.614Z,100825.78
2023-04-27T21:05:06.017Z,100834.56
2023-04-27T21:07:33.084Z,100839.06
2023-04-27T21:10:06.101Z,100847.97
2023-04-27T21:12:33.942Z,100837.38
2023-04-27T21:15:01.417Z,100847.31
2023-04-27T21:17:28.947Z,100840.28
2023-04-27T21:19:58.147Z,100851.44
2023-04-27T21:22:25.224Z,100844.28
2023-04-27T21:24:52.741Z,100843.72
2023-04-27T21:27:19.868Z,100849.94
2023-04-27T21:29:46.875Z,100855.22
2023-04-27T21:32:13.880Z,100853.44
2023-04-27T21:34:40.908Z,100855.94
2023-04-27T21:37:07.998Z,100857.63
2023-04-27T21:39:34.932Z,100854.22
2023-04-27T21:42:02.076Z,100861.41
2023-04-27T21:44:29.116Z,100854.41
2023-04-27T21:46:56.042Z,100863.28
2023-04-27T21:49:23.021Z,100870.34
2023-04-27T21:51:50.203Z,100874.72
2023-04-27T21:54:17.364Z,100870.31
2023-04-27T21:56:44.677Z,100876.53
2023-04-27T21:59:11.634Z,100875.66
2023-04-27T22:01:39.013Z,100880.03
2023-04-27T22:04:09.980Z,100879.13
2023-04-27T22:06:38.150Z,100882.66
2023-04-27T22:09:07.769Z,100881.78
2023-04-27T22:11:35.209Z,100887.00
2023-04-27T22:14:02.167Z,100881.78
2023-04-27T22:16:30.304Z,100887.94
2023-04-27T22:18:57.568Z,100894.91
2023-04-27T22:21:24.613Z,100884.41
2023-04-27T22:23:51.592Z,100880.06
2023-04-27T22:26:18.630Z,100884.44
2023-04-27T22:28:45.631Z,100890.56
2023-04-27T22:31:12.634Z,100887.03
2023-04-27T22:33:39.703Z,100881.81
2023-04-27T22:36:07.567Z,100871.28
2023-04-27T22:38:34.593Z,100867.75
2023-04-27T22:41:01.572Z,100858.13
2023-04-27T22:43:28.783Z,100863.41
2023-04-27T22:45:55.818Z,100848.47
2023-04-27T22:48:22.829Z,100845.84
2023-04-27T22:50:49.992Z,100846.72
2023-04-27T22:53:16.963Z,100834.44
2023-04-27T22:55:43.930Z,100844.09
2023-04-27T22:58:10.997Z,100847.59
2023-04-27T23:00:37.992Z,100855.47
2023-04-27T23:03:05.251Z,100857.22
2023-04-27T23:05:32.720Z,100859.78
2023-04-27T23:08:00.151Z,100857.16
2023-04-27T23:10:27.286Z,100864.22
2023-04-27T23:12:55.121Z,100870.41
2023-04-27T23:15:24.118Z,100854.59
2023-04-27T23:17:51.076Z,100858.09
2023-04-27T23:20:28.042Z,100863.34
2023-04-27T23:22:55.990Z,100872.13
2023-04-27T23:25:22.979Z,100877.38
2023-04-27T23:27:51.924Z,100867.75
2023-04-27T23:30:20.070Z,100864.22
2023-04-27T23:32:47.022Z,100864.25
2023-04-27T23:35:14.156Z,100856.38
2023-04-27T23:37:41.204Z,100872.16
2023-04-27T23:40:08.714Z,100870.41
2023-04-27T23:42:35.722Z,100873.03
2023-04-27T23:45:04.266Z,100872.16
2023-04-27T23:47:33.971Z,100866.88
2023-04-27T23:50:02.432Z,100875.66
2023-04-27T23:52:29.488Z,100875.66
2023-04-27T23:54:57.944Z,100879.13
2023-04-27T23:57:24.962Z,100884.34
2023-04-27T23:59:52.021Z,100886.03
